createdAt,value
2022-09-23T00:01:10.974Z,99.90
2022-09-23T00:03:41.878Z,99.90
2022-09-23T00:06:18.143Z,99.90
2022-09-23T00:08:45.158Z,99.90
2022-09-23T00:11:14.585Z,99.90
2022-09-23T00:13:43.331Z,99.90
2022-09-23T00:16:13.246Z,99.90
2022-09-23T00:18:39.958Z,99.90
2022-09-23T00:21:10.348Z,99.90
2022-09-23T00:23:38.076Z,99.90
2022-09-23T00:26:06.205Z,99.90
2022-09-23T00:28:33.302Z,99.90
2022-09-23T00:31:05.407Z,99.90
2022-09-23T00:33:32.221Z,99.90
2022-09-23T00:36:04.046Z,99.90
2022-09-23T00:38:30.690Z,99.90
2022-09-23T00:40:58.401Z,99.90
2022-09-23T00:43:44.558Z,99.90
2022-09-23T00:46:17.598Z,99.90
2022-09-23T00:48:45.619Z,99.90
2022-09-23T00:51:17.848Z,99.90
2022-09-23T00:53:47.093Z,99.90
2022-09-23T00:56:14.778Z,99.90
2022-09-23T00:58:44.478Z,99.90
2022-09-23T01:01:13.824Z,99.90
2022-09-23T01:03:43.367Z,99.90
2022-09-23T01:06:11.129Z,99.90
2022-09-23T01:08:37.964Z,99.90
2022-09-23T01:11:22.501Z,99.90
2022-09-23T01:14:21.782Z,99.90
2022-09-23T01:17:09.465Z,99.90
2022-09-23T01:20:00.462Z,99.90
2022-09-23T01:22:32.703Z,99.90
2022-09-23T01:25:28.561Z,99.90
2022-09-23T01:28:19.923Z,99.90
2022-09-23T01:31:05.126Z,99.90
2022-09-23T01:33:51.015Z,99.90
2022-09-23T01:36:23.929Z,99.90
2022-09-23T01:39:08.099Z,99.90
2022-09-23T01:41:44.500Z,99.90
2022-09-23T01:44:20.793Z,99.90
2022-09-23T01:47:10.801Z,99.90
2022-09-23T01:49:56.085Z,99.90
2022-09-23T01:52:38.764Z,99.90
2022-09-23T01:55:24.907Z,99.90
2022-09-23T01:58:01.037Z,99.90
2022-09-23T02:00:31.753Z,99.90
2022-09-23T02:03:06.971Z,99.90
2022-09-23T02:05:41.227Z,99.90
2022-09-23T02:08:29.721Z,99.90
2022-09-23T02:11:08.882Z,99.90
2022-09-23T02:14:00.017Z,99.90
2022-09-23T02:16:39.436Z,99.90
2022-09-23T02:19:28.063Z,99.90
2022-09-23T02:22:21.868Z,99.90
2022-09-23T02:24:49.147Z,99.90
2022-09-23T02:27:40.826Z,99.90
2022-09-23T02:30:15.144Z,99.90
2022-09-23T02:33:17.171Z,99.90
2022-09-23T02:35:53.318Z,99.90
2022-09-23T02:38:36.510Z,99.90
2022-09-23T02:41:17.483Z,99.90
2022-09-23T02:43:57.745Z,99.90
2022-09-23T02:46:24.487Z,99.90
2022-09-23T02:48:56.764Z,99.90
2022-09-23T02:51:28.776Z,99.90
2022-09-23T02:53:57.547Z,99.90
2022-09-23T02:56:24.445Z,99.90
2022-09-23T02:58:55.019Z,99.90
2022-09-23T03:01:58.590Z,99.90
2022-09-23T03:04:39.738Z,99.90
2022-09-23T03:07:18.902Z,99.90
2022-09-23T03:10:04.261Z,99.90
2022-09-23T03:12:52.898Z,99.90
2022-09-23T03:15:43.954Z,99.90
2022-09-23T03:18:35.836Z,99.90
2022-09-23T03:21:08.317Z,99.90
2022-09-23T03:23:39.328Z,99.90
2022-09-23T03:26:12.591Z,99.90
2022-09-23T03:28:42.714Z,99.90
2022-09-23T03:31:12.036Z,99.90
2022-09-23T03:33:41.456Z,99.90
2022-09-23T03:36:30.030Z,99.90
2022-09-23T03:39:05.169Z,99.90
2022-09-23T03:41:43.264Z,99.90
2022-09-23T03:44:10.922Z,99.90
2022-09-23T03:46:37.685Z,99.90
2022-09-23T03:49:16.449Z,99.90
2022-09-23T03:51:44.822Z,99.90
2022-09-23T03:54:11.735Z,99.90
2022-09-23T03:56:38.352Z,99.90
2022-09-23T03:59:04.920Z,99.90
2022-09-23T04:01:31.589Z,99.90
2022-09-23T04:03:58.186Z,99.90
2022-09-23T04:06:24.874Z,99.90
2022-09-23T04:08:51.487Z,99.90
2022-09-23T04:11:18.126Z,99.90
2022-09-23T04:13:44.742Z,99.90
2022-09-23T04:16:11.426Z,99.90
2022-09-23T04:18:38.040Z,99.90
2022-09-23T04:21:04.782Z,99.90
2022-09-23T04:23:31.548Z,99.90
2022-09-23T04:25:58.204Z,99.90
2022-09-23T04:28:25.037Z,99.90
2022-09-23T04:30:51.660Z,99.90
2022-09-23T04:33:18.344Z,99.90
2022-09-23T04:35:49.366Z,99.90
2022-09-23T04:38:15.953Z,99.90
2022-09-23T04:40:42.568Z,99.90
2022-09-23T04:43:13.435Z,99.90
2022-09-23T04:45:40.257Z,99.90
2022-09-23T04:48:07.212Z,99.90
2022-09-23T04:50:34.066Z,99.90
2022-09-23T04:53:01.812Z,99.90
2022-09-23T04:55:28.753Z,99.90
2022-09-23T04:57:55.544Z,99.90
2022-09-23T05:00:23.222Z,99.90
2022-09-23T05:02:50.510Z,99.90
2022-09-23T05:05:23.584Z,99.90
2022-09-23T05:07:51.206Z,99.90
2022-09-23T05:10:18.155Z,99.90
2022-09-23T05:12:44.727Z,99.90
2022-09-23T05:15:13.031Z,99.90
2022-09-23T05:17:39.621Z,99.90
2022-09-23T05:20:06.767Z,99.90
2022-09-23T05:22:33.332Z,99.90
2022-09-23T05:25:02.321Z,99.90
2022-09-23T05:27:29.015Z,99.90
2022-09-23T05:29:55.697Z,99.90
2022-09-23T05:32:22.628Z,99.90
2022-09-23T05:34:49.292Z,99.90
2022-09-23T05:37:15.956Z,99.90
2022-09-23T05:39:42.553Z,99.90
2022-09-23T05:42:09.870Z,99.90
2022-09-23T05:44:36.482Z,99.90
2022-09-23T05:47:03.148Z,99.90
2022-09-23T05:49:48.659Z,99.90
2022-09-23T05:52:17.146Z,99.90
2022-09-23T05:54:43.809Z,99.90
2022-09-23T05:57:10.413Z,99.90
2022-09-23T05:59:38.098Z,99.90
2022-09-23T06:02:04.828Z,99.90
2022-09-23T06:04:31.543Z,99.90
2022-09-23T06:07:02.791Z,99.90
2022-09-23T06:09:35.597Z,99.90
2022-09-23T06:12:04.378Z,99.90
2022-09-23T06:14:30.983Z,99.90
2022-09-23T06:16:57.573Z,99.90
2022-09-23T06:19:24.196Z,99.90
2022-09-23T06:21:50.831Z,99.90
2022-09-23T06:24:20.804Z,99.90
2022-09-23T06:26:49.045Z,99.90
2022-09-23T06:29:15.693Z,99.90
2022-09-23T06:31:43.253Z,99.90
2022-09-23T06:34:13.382Z,99.90
2022-09-23T06:36:44.994Z,99.90
2022-09-23T06:39:12.793Z,99.90
2022-09-23T06:41:39.465Z,99.90
2022-09-23T06:44:11.616Z,99.90
2022-09-23T06:46:38.415Z,99.90
2022-09-23T06:49:05.028Z,99.90
2022-09-23T06:51:31.886Z,99.90
2022-09-23T06:53:58.565Z,99.90
2022-09-23T06:56:25.179Z,99.90
2022-09-23T06:58:52.620Z,99.90
2022-09-23T07:01:19.697Z,99.90
2022-09-23T07:03:48.147Z,99.90
2022-09-23T07:06:14.852Z,99.90
2022-09-23T07:08:44.771Z,99.90
2022-09-23T07:11:13.021Z,99.90
2022-09-23T07:13:41.461Z,99.90
2022-09-23T07:16:09.844Z,99.90
2022-09-23T07:18:37.566Z,99.90
2022-09-23T07:21:24.170Z,99.90
2022-09-23T07:23:51.659Z,99.90
2022-09-23T07:26:19.765Z,99.90
2022-09-23T07:28:46.679Z,99.90
2022-09-23T07:31:17.178Z,99.90
2022-09-23T07:33:49.097Z,99.90
2022-09-23T07:36:18.548Z,99.90
2022-09-23T07:38:46.482Z,99.90
2022-09-23T07:41:16.827Z,99.90
2022-09-23T07:43:44.288Z,99.90
2022-09-23T07:46:16.330Z,99.90
2022-09-23T07:48:44.119Z,99.90
2022-09-23T07:51:23.624Z,99.90
2022-09-23T07:53:51.613Z,99.90
2022-09-23T07:56:19.375Z,99.80
2022-09-23T07:58:59.860Z,99.20
2022-09-23T08:01:48.441Z,98.60
2022-09-23T08:04:18.634Z,98.90
2022-09-23T08:06:47.751Z,98.30
2022-09-23T08:09:16.128Z,97.50
2022-09-23T08:11:42.844Z,96.30
2022-09-23T08:14:11.302Z,96.20
2022-09-23T08:16:37.904Z,95.80
2022-09-23T08:21:32.185Z,95.40
2022-09-23T08:23:59.198Z,94.60
2022-09-23T08:26:25.856Z,94.30
2022-09-23T08:28:56.440Z,94.30
2022-09-23T08:31:23.643Z,95.00
2022-09-23T08:33:55.689Z,94.80
2022-09-23T08:36:22.937Z,94.40
2022-09-23T08:38:49.651Z,94.40
2022-09-23T08:41:40.774Z,93.90
2022-09-23T08:44:16.365Z,93.60
2022-09-23T08:47:01.131Z,94.50
2022-09-23T08:49:45.500Z,93.80
2022-09-23T08:52:22.301Z,94.00
2022-09-23T08:54:53.181Z,94.80
2022-09-23T08:57:36.661Z,94.80
2022-09-23T09:00:04.279Z,95.00
2022-09-23T09:02:35.152Z,94.00
2022-09-23T09:05:10.309Z,94.70
2022-09-23T09:07:40.335Z,94.70
2022-09-23T09:10:24.030Z,94.50
2022-09-23T09:13:17.366Z,94.20
2022-09-23T09:16:00.857Z,94.50
2022-09-23T09:18:31.107Z,93.70
2022-09-23T09:21:08.502Z,93.50
2022-09-23T09:23:53.803Z,93.90
2022-09-23T09:26:26.947Z,93.40
2022-09-23T09:29:23.308Z,93.00
2022-09-23T09:31:51.210Z,93.10
2022-09-23T09:34:23.730Z,93.20
2022-09-23T09:37:04.661Z,94.00
2022-09-23T09:39:34.921Z,93.60
2022-09-23T09:42:02.542Z,94.10
2022-09-23T09:44:48.626Z,94.50
2022-09-23T09:47:40.450Z,94.70
2022-09-23T09:50:13.904Z,94.70
2022-09-23T09:52:43.104Z,94.00
2022-09-23T09:55:12.763Z,93.40
2022-09-23T09:58:05.081Z,93.00
2022-09-23T10:00:36.974Z,91.60
2022-09-23T10:03:13.198Z,91.70
2022-09-23T10:05:45.492Z,92.00
2022-09-23T10:08:33.415Z,91.10
2022-09-23T10:11:17.157Z,91.10
2022-09-23T10:14:18.000Z,91.90
2022-09-23T10:16:47.064Z,92.00
2022-09-23T10:19:25.995Z,91.30
2022-09-23T10:21:59.784Z,90.60
2022-09-23T10:24:32.173Z,91.30
2022-09-23T10:27:07.624Z,91.10
2022-09-23T10:29:36.986Z,91.10
2022-09-23T10:32:14.615Z,89.50
2022-09-23T10:34:46.856Z,90.20
2022-09-23T10:37:34.401Z,90.10
2022-09-23T10:40:31.735Z,89.70
2022-09-23T10:43:41.691Z,90.00
2022-09-23T10:46:39.426Z,89.30
2022-09-23T10:49:21.495Z,88.90
2022-09-23T10:51:51.192Z,90.60
2022-09-23T10:54:39.097Z,90.30
2022-09-23T10:57:38.000Z,89.50
2022-09-23T11:00:16.499Z,88.40
2022-09-23T11:02:55.413Z,87.00
2022-09-23T11:05:37.569Z,87.60
2022-09-23T11:08:13.562Z,89.40
2022-09-23T11:10:49.712Z,88.20
2022-09-23T11:13:38.132Z,89.10
2022-09-23T11:16:39.027Z,89.40
2022-09-23T11:19:50.623Z,87.90
2022-09-23T11:22:54.878Z,86.00
2022-09-23T11:25:36.200Z,86.10
2022-09-23T11:28:25.565Z,83.70
2022-09-23T11:31:15.805Z,83.80
2022-09-23T11:34:02.794Z,87.50
2022-09-23T11:36:33.994Z,87.30
2022-09-23T11:39:06.750Z,86.90
2022-09-23T11:41:38.337Z,87.20
2022-09-23T11:44:20.191Z,88.10
2022-09-23T11:51:23.181Z,85.50
2022-09-23T11:54:16.114Z,83.60
2022-09-23T11:57:09.839Z,83.70
2022-09-23T12:00:09.922Z,83.40
2022-09-23T12:03:50.875Z,83.10
2022-09-23T12:06:32.756Z,83.60
2022-09-23T12:09:04.548Z,81.40
2022-09-23T12:11:50.367Z,81.70
2022-09-23T12:14:31.681Z,84.70
2022-09-23T12:17:15.090Z,84.80
2022-09-23T12:20:00.474Z,83.80
2022-09-23T12:22:52.654Z,86.10
2022-09-23T12:25:52.859Z,82.10
2022-09-23T12:28:25.078Z,80.40
2022-09-23T12:30:56.156Z,81.00
2022-09-23T12:33:27.432Z,82.10
2022-09-23T12:36:05.972Z,82.40
2022-09-23T12:38:56.301Z,82.10
2022-09-23T12:41:37.452Z,83.20
2022-09-23T12:44:23.259Z,82.00
2022-09-23T12:47:21.261Z,84.00
2022-09-23T12:49:49.456Z,84.70
2022-09-23T12:52:16.330Z,82.80
2022-09-23T12:54:43.915Z,85.50
2022-09-23T12:57:14.803Z,81.40
2022-09-23T12:59:55.844Z,82.20
2022-09-23T13:02:25.631Z,83.20
2022-09-23T13:05:17.668Z,83.10
2022-09-23T13:07:48.639Z,82.60
2022-09-23T13:10:18.226Z,82.30
2022-09-23T13:12:46.355Z,83.50
2022-09-23T13:15:29.896Z,83.00
2022-09-23T13:18:18.328Z,82.70
2022-09-23T13:20:46.757Z,83.10
2022-09-23T13:23:32.663Z,84.20
2022-09-23T13:26:10.655Z,83.30
2022-09-23T13:28:44.590Z,82.10
2022-09-23T13:31:16.287Z,83.80
2022-09-23T13:33:48.079Z,82.20
2022-09-23T13:36:17.495Z,82.20
2022-09-23T13:38:46.598Z,82.80
2022-09-23T13:41:23.547Z,83.70
2022-09-23T13:43:58.997Z,84.70
2022-09-23T13:46:29.904Z,82.60
2022-09-23T13:48:57.039Z,80.70
2022-09-23T13:51:36.655Z,80.40
2022-09-23T13:54:04.666Z,79.20
2022-09-23T13:56:33.207Z,81.20
2022-09-23T13:59:26.843Z,83.50
2022-09-23T14:02:15.167Z,82.80
2022-09-23T14:04:42.130Z,83.10
2022-09-23T14:07:12.946Z,80.20
2022-09-23T14:09:46.306Z,80.80
2022-09-23T14:12:13.409Z,83.90
2022-09-23T14:14:41.976Z,83.50
2022-09-23T14:17:10.198Z,83.60
2022-09-23T14:19:37.184Z,84.50
2022-09-23T14:22:04.033Z,85.80
2022-09-23T14:24:36.002Z,81.60
2022-09-23T14:27:15.773Z,82.80
2022-09-23T14:29:48.011Z,83.20
2022-09-23T14:32:20.951Z,82.40
2022-09-23T14:35:09.186Z,82.60
2022-09-23T14:37:57.728Z,82.30
2022-09-23T14:40:50.931Z,84.60
2022-09-23T14:43:23.911Z,84.60
2022-09-23T14:45:54.755Z,86.30
2022-09-23T14:48:31.195Z,84.80
2022-09-23T14:50:59.956Z,86.20
2022-09-23T14:53:35.673Z,85.50
2022-09-23T14:56:08.406Z,86.50
2022-09-23T14:58:56.288Z,84.70
2022-09-23T15:02:14.482Z,85.60
2022-09-23T15:05:23.314Z,87.30
2022-09-23T15:21:08.202Z,87.40
2022-09-23T15:49:28.525Z,90.10
2022-09-23T16:12:04.873Z,90.10
2022-09-23T16:14:48.394Z,91.00
2022-09-23T16:31:36.134Z,91.10
2022-09-23T16:34:30.430Z,91.60
2022-09-23T16:37:38.052Z,93.60
2022-09-23T16:49:00.899Z,96.50
2022-09-23T16:51:53.374Z,96.70
2022-09-23T16:54:27.098Z,96.40
2022-09-23T16:57:28.129Z,97.00
2022-09-23T17:00:26.347Z,98.00
2022-09-23T17:03:35.534Z,99.40
2022-09-23T17:10:27.353Z,99.90
2022-09-23T17:20:22.322Z,99.90
2022-09-23T17:22:57.033Z,99.90
2022-09-23T17:25:37.715Z,99.90
2022-09-23T17:28:18.800Z,99.90
2022-09-23T17:31:15.018Z,99.90
2022-09-23T17:34:06.918Z,99.90
2022-09-23T17:36:33.581Z,99.90
2022-09-23T17:39:00.311Z,99.90
2022-09-23T17:41:27.400Z,99.90
2022-09-23T17:44:00.926Z,99.90
2022-09-23T17:46:34.653Z,99.90
2022-09-23T17:49:11.413Z,99.90
2022-09-23T17:51:40.251Z,99.90
2022-09-23T17:54:08.456Z,99.90
2022-09-23T17:56:35.063Z,99.90
2022-09-23T17:59:02.206Z,99.90
2022-09-23T18:01:29.814Z,99.90
2022-09-23T18:04:01.506Z,99.90
2022-09-23T18:06:33.022Z,99.90
2022-09-23T18:09:03.865Z,99.90
2022-09-23T18:11:33.750Z,99.90
2022-09-23T18:14:05.749Z,99.90
2022-09-23T18:16:37.845Z,99.90
2022-09-23T18:19:05.426Z,99.90
2022-09-23T18:21:40.703Z,99.90
2022-09-23T18:26:59.467Z,99.90
2022-09-23T18:29:26.440Z,99.90
2022-09-23T18:31:53.230Z,99.90
2022-09-23T18:34:20.276Z,99.90
2022-09-23T18:36:47.187Z,99.90
2022-09-23T18:39:13.913Z,99.90
2022-09-23T18:41:41.174Z,99.90
2022-09-23T18:44:08.517Z,99.90
2022-09-23T18:46:35.486Z,99.90
2022-09-23T18:49:20.774Z,99.90
2022-09-23T18:51:51.023Z,99.90
2022-09-23T18:54:19.297Z,99.90
2022-09-23T18:56:46.406Z,99.90
2022-09-23T18:59:20.342Z,99.90
2022-09-23T19:01:49.833Z,99.90
2022-09-23T19:04:19.349Z,99.90
2022-09-23T19:06:46.550Z,99.90
2022-09-23T19:09:15.318Z,99.90
2022-09-23T19:11:42.265Z,99.90
2022-09-23T19:14:11.311Z,99.90
2022-09-23T19:16:39.416Z,99.90
2022-09-23T19:19:06.599Z,99.90
2022-09-23T19:21:34.218Z,99.90
2022-09-23T19:24:04.251Z,99.90
2022-09-23T19:26:37.461Z,99.90
2022-09-23T19:29:07.931Z,99.90
2022-09-23T19:31:40.145Z,99.90
2022-09-23T19:34:12.429Z,99.90
2022-09-23T19:36:42.517Z,99.90
2022-09-23T19:39:17.259Z,99.90
2022-09-23T19:41:44.410Z,99.90
2022-09-23T19:44:11.766Z,99.90
2022-09-23T19:46:45.129Z,99.90
2022-09-23T19:49:12.386Z,99.90
2022-09-23T19:51:39.162Z,99.90
2022-09-23T19:54:07.429Z,99.90
2022-09-23T19:56:35.492Z,99.90
2022-09-23T19:59:03.049Z,99.90
2022-09-23T20:01:31.813Z,99.90
2022-09-23T20:03:59.177Z,99.90
2022-09-23T20:06:29.869Z,99.90
2022-09-23T20:08:57.987Z,99.90
2022-09-23T20:11:28.543Z,99.90
2022-09-23T20:14:01.020Z,99.90
2022-09-23T20:16:34.569Z,99.90
2022-09-23T20:19:02.776Z,99.90
2022-09-23T20:21:29.859Z,99.90
2022-09-23T20:23:57.753Z,99.90
2022-09-23T20:26:43.024Z,99.90
2022-09-23T20:29:10.699Z,99.90
2022-09-23T20:31:37.762Z,99.90
2022-09-23T20:34:06.868Z,99.90
2022-09-23T20:36:35.311Z,99.90
2022-09-23T20:39:06.153Z,99.90
2022-09-23T20:41:37.019Z,99.90
2022-09-23T20:44:06.389Z,99.90
2022-09-23T20:46:34.184Z,99.90
2022-09-23T20:49:01.885Z,99.90
2022-09-23T20:51:28.585Z,99.90
2022-09-23T20:53:55.702Z,99.90
2022-09-23T20:56:22.672Z,99.90
2022-09-23T20:58:50.641Z,99.90
2022-09-23T21:01:18.170Z,99.90
2022-09-23T21:03:46.748Z,99.90
2022-09-23T21:06:15.506Z,99.90
2022-09-23T21:08:43.450Z,99.90
2022-09-23T21:11:15.330Z,99.90
2022-09-23T21:13:47.083Z,99.90
2022-09-23T21:16:16.097Z,99.90
2022-09-23T21:18:43.718Z,99.90
2022-09-23T21:21:12.044Z,99.90
2022-09-23T21:23:39.888Z,99.90
2022-09-23T21:26:28.537Z,99.90
2022-09-23T21:29:00.192Z,99.90
2022-09-23T21:31:28.364Z,99.90
2022-09-23T21:33:59.377Z,99.90
2022-09-23T21:36:31.471Z,99.90
2022-09-23T21:38:58.965Z,99.90
2022-09-23T21:41:25.568Z,99.90
2022-09-23T21:43:52.264Z,99.90
2022-09-23T21:46:20.659Z,99.90
2022-09-23T21:48:58.711Z,99.90
2022-09-23T21:51:27.974Z,99.90
2022-09-23T21:53:56.920Z,99.90
2022-09-23T21:56:26.227Z,99.90
2022-09-23T21:58:53.738Z,99.90
2022-09-23T22:01:36.137Z,99.90
2022-09-23T22:04:07.881Z,99.90
2022-09-23T22:06:38.043Z,99.90
2022-09-23T22:09:10.332Z,99.90
2022-09-23T22:11:56.516Z,99.90
2022-09-23T22:14:26.016Z,99.90
2022-09-23T22:16:57.566Z,99.90
2022-09-23T22:19:34.975Z,99.90
2022-09-23T22:22:06.649Z,99.90
2022-09-23T22:24:33.280Z,99.90
2022-09-23T22:27:00.023Z,99.90
2022-09-23T22:29:45.220Z,99.90
2022-09-23T22:32:30.628Z,99.90
2022-09-23T22:34:57.469Z,99.90
2022-09-23T22:37:38.294Z,99.90
2022-09-23T22:40:11.112Z,99.90
2022-09-23T22:42:38.898Z,99.90
2022-09-23T22:45:06.255Z,99.90
2022-09-23T22:47:37.017Z,99.90
2022-09-23T22:50:08.976Z,99.90
2022-09-23T22:52:35.692Z,99.90
2022-09-23T22:55:03.646Z,99.90
2022-09-23T22:57:31.169Z,99.90
2022-09-23T22:59:57.907Z,99.90
2022-09-23T23:02:24.509Z,99.90
2022-09-23T23:04:51.238Z,99.90
2022-09-23T23:07:22.911Z,99.90
2022-09-23T23:09:50.501Z,99.90
2022-09-23T23:12:19.946Z,99.90
2022-09-23T23:14:48.105Z,99.90
2022-09-23T23:17:14.702Z,99.90
2022-09-23T23:19:41.317Z,99.90
2022-09-23T23:22:07.938Z,99.90
2022-09-23T23:24:34.625Z,99.90
2022-09-23T23:27:01.416Z,99.90
2022-09-23T23:29:28.107Z,99.90
2022-09-23T23:31:54.801Z,99.90
2022-09-23T23:34:21.975Z,99.90
2022-09-23T23:36:54.353Z,99.90
2022-09-23T23:39:23.526Z,99.90
2022-09-23T23:41:57.607Z,99.90
2022-09-23T23:44:25.523Z,99.90
2022-09-23T23:46:53.047Z,99.90
2022-09-23T23:49:20.150Z,99.90
2022-09-23T23:51:47.762Z,99.90
2022-09-23T23:54:15.174Z,99.90
2022-09-23T23:56:41.953Z,99.90
2022-09-23T23:59:08.589Z,99.90
